sensor_id;sensor_type;location;lat;lon;timestamp;P1;durP1;ratioP1;P2;durP2;ratioP2
49946;SDS011;35839;48.662;13.300;2023-07-09T05:03:25;10.10;;;7.72;;
49946;SDS011;35839;48.662;13.300;2023-07-09T05:05:51;10.35;;;7.35;;
49946;SDS011;35839;48.662;13.300;2023-07-09T05:08:16;9.63;;;7.25;;
49946;SDS011;35839;48.662;13.300;2023-07-09T05:10:43;10.25;;;6.88;;
49946;SDS011;35839;48.662;13.300;2023-07-09T05:13:10;9.57;;;7.20;;
49946;SDS011;35839;48.662;13.300;2023-07-09T05:15:39;10.80;;;8.13;;
49946;SDS011;35839;48.662;13.300;2023-07-09T05:18:05;10.57;;;7.47;;
49946;SDS011;35839;48.662;13.300;2023-07-09T05:20:30;10.55;;;7.20;;
49946;SDS011;35839;48.662;13.300;2023-07-09T05:22:56;9.65;;;7.75;;
49946;SDS011;35839;48.662;13.300;2023-07-09T05:25:21;9.20;;;7.50;;
49946;SDS011;35839;48.662;13.300;2023-07-09T05:27:46;11.00;;;7.97;;
49946;SDS011;35839;48.662;13.300;2023-07-09T05:30:12;9.57;;;7.45;;
49946;SDS011;35839;48.662;13.300;2023-07-09T05:32:37;12.40;;;7.55;;
49946;SDS011;35839;48.662;13.300;2023-07-09T05:35:03;12.25;;;7.88;;
49946;SDS011;35839;48.662;13.300;2023-07-09T05:37:29;11.27;;;7.95;;
49946;SDS011;35839;48.662;13.300;2023-07-09T05:39:55;10.27;;;7.40;;
49946;SDS011;35839;48.662;13.300;2023-07-09T05:42:20;11.85;;;6.93;;
49946;SDS011;35839;48.662;13.300;2023-07-09T05:44:45;10.95;;;7.30;;
49946;SDS011;35839;48.662;13.300;2023-07-09T05:47:10;13.48;;;7.13;;
49946;SDS011;35839;48.662;13.300;2023-07-09T05:49:37;13.35;;;7.60;;
49946;SDS011;35839;48.662;13.300;2023-07-09T05:52:03;8.52;;;6.82;;
49946;SDS011;35839;48.662;13.300;2023-07-09T05:54:29;9.60;;;6.30;;
49946;SDS011;35839;48.662;13.300;2023-07-09T05:56:54;9.63;;;6.35;;
49946;SDS011;35839;48.662;13.300;2023-07-09T05:59:19;10.90;;;6.60;;
49946;SDS011;35839;48.662;13.300;2023-07-09T06:01:44;14.30;;;7.03;;
49946;SDS011;35839;48.662;13.300;2023-07-09T06:04:10;7.32;;;6.18;;
49946;SDS011;35839;48.662;13.300;2023-07-09T06:06:38;10.10;;;6.70;;
49946;SDS011;35839;48.662;13.300;2023-07-09T06:09:04;9.32;;;6.95;;
49946;SDS011;35839;48.662;13.300;2023-07-09T06:11:29;7.78;;;6.15;;
49946;SDS011;35839;48.662;13.300;2023-07-09T06:13:55;11.20;;;6.38;;
49946;SDS011;35839;48.662;13.300;2023-07-09T06:16:20;8.38;;;5.60;;
49946;SDS011;35839;48.662;13.300;2023-07-09T06:18:46;8.52;;;6.65;;
49946;SDS011;35839;48.662;13.300;2023-07-09T06:21:11;13.95;;;6.05;;
49946;SDS011;35839;48.662;13.300;2023-07-09T06:23:37;10.35;;;6.05;;
49946;SDS011;35839;48.662;13.300;2023-07-09T06:26:03;8.23;;;5.70;;
49946;SDS011;35839;48.662;13.300;2023-07-09T06:28:28;8.32;;;6.43;;
49946;SDS011;35839;48.662;13.300;2023-07-09T06:30:54;9.05;;;6.55;;
49946;SDS011;35839;48.662;13.300;2023-07-09T06:33:20;8.05;;;6.55;;
49946;SDS011;35839;48.662;13.300;2023-07-09T06:35:46;6.95;;;5.95;;
49946;SDS011;35839;48.662;13.300;2023-07-09T06:38:15;10.30;;;6.45;;
49946;SDS011;35839;48.662;13.300;2023-07-09T06:40:41;7.88;;;6.15;;
49946;SDS011;35839;48.662;13.300;2023-07-09T06:43:06;6.90;;;5.63;;
49946;SDS011;35839;48.662;13.300;2023-07-09T06:45:32;7.20;;;5.47;;
49946;SDS011;35839;48.662;13.300;2023-07-09T06:47:57;8.60;;;6.05;;
49946;SDS011;35839;48.662;13.300;2023-07-09T06:50:22;7.15;;;6.10;;
49946;SDS011;35839;48.662;13.300;2023-07-09T06:52:48;9.60;;;5.72;;
49946;SDS011;35839;48.662;13.300;2023-07-09T06:55:13;9.07;;;6.50;;
49946;SDS011;35839;48.662;13.300;2023-07-09T06:57:38;9.65;;;5.57;;
49946;SDS011;35839;48.662;13.300;2023-07-09T07:00:04;12.20;;;6.47;;
49946;SDS011;35839;48.662;13.300;2023-07-09T07:02:30;7.90;;;5.57;;
49946;SDS011;35839;48.662;13.300;2023-07-09T07:04:55;9.05;;;5.63;;
49946;SDS011;35839;48.662;13.300;2023-07-09T07:07:20;9.88;;;6.22;;
49946;SDS011;35839;48.662;13.300;2023-07-09T07:09:46;7.95;;;6.13;;
49946;SDS011;35839;48.662;13.300;2023-07-09T07:12:13;9.23;;;5.88;;
49946;SDS011;35839;48.662;13.300;2023-07-09T07:14:48;11.20;;;6.75;;
49946;SDS011;35839;48.662;13.300;2023-07-09T07:17:13;8.40;;;6.35;;
49946;SDS011;35839;48.662;13.300;2023-07-09T07:19:39;9.13;;;6.07;;
49946;SDS011;35839;48.662;13.300;2023-07-09T07:22:04;7.75;;;6.55;;
49946;SDS011;35839;48.662;13.300;2023-07-09T07:24:32;7.07;;;5.93;;
49946;SDS011;35839;48.662;13.300;2023-07-09T07:26:57;10.20;;;7.03;;
49946;SDS011;35839;48.662;13.300;2023-07-09T07:29:22;8.55;;;6.35;;
49946;SDS011;35839;48.662;13.300;2023-07-09T07:31:48;8.23;;;6.45;;
49946;SDS011;35839;48.662;13.300;2023-07-09T07:34:13;8.45;;;6.63;;
49946;SDS011;35839;48.662;13.300;2023-07-09T07:36:38;8.48;;;6.90;;
49946;SDS011;35839;48.662;13.300;2023-07-09T07:39:04;8.98;;;6.35;;
49946;SDS011;35839;48.662;13.300;2023-07-09T07:41:30;9.85;;;6.53;;
49946;SDS011;35839;48.662;13.300;2023-07-09T07:43:55;9.95;;;6.88;;
49946;SDS011;35839;48.662;13.300;2023-07-09T07:46:20;8.60;;;6.85;;
49946;SDS011;35839;48.662;13.300;2023-07-09T07:48:45;8.52;;;6.18;;
49946;SDS011;35839;48.662;13.300;2023-07-09T07:51:11;8.43;;;6.88;;
49946;SDS011;35839;48.662;13.300;2023-07-09T07:53:36;10.80;;;7.30;;
49946;SDS011;35839;48.662;13.300;2023-07-09T07:56:01;9.45;;;6.55;;
49946;SDS011;35839;48.662;13.300;2023-07-09T07:58:27;9.50;;;6.60;;
49946;SDS011;35839;48.662;13.300;2023-07-09T08:00:56;12.57;;;7.53;;
49946;SDS011;35839;48.662;13.300;2023-07-09T08:03:22;12.57;;;7.05;;
49946;SDS011;35839;48.662;13.300;2023-07-09T08:05:51;16.05;;;7.88;;
49946;SDS011;35839;48.662;13.300;2023-07-09T08:08:17;11.68;;;6.90;;
49946;SDS011;35839;48.662;13.300;2023-07-09T08:10:42;14.65;;;7.07;;
49946;SDS011;35839;48.662;13.300;2023-07-09T08:13:08;9.38;;;7.00;;
49946;SDS011;35839;48.662;13.300;2023-07-09T08:15:33;9.45;;;7.50;;
49946;SDS011;35839;48.662;13.300;2023-07-09T08:17:59;12.27;;;7.40;;
49946;SDS011;35839;48.662;13.300;2023-07-09T08:20:25;13.57;;;8.18;;
49946;SDS011;35839;48.662;13.300;2023-07-09T08:22:50;8.75;;;7.35;;
49946;SDS011;35839;48.662;13.300;2023-07-09T08:25:15;12.65;;;8.00;;
49946;SDS011;35839;48.662;13.300;2023-07-09T08:27:41;13.73;;;7.55;;
49946;SDS011;35839;48.662;13.300;2023-07-09T08:30:06;10.90;;;7.70;;
49946;SDS011;35839;48.662;13.300;2023-07-09T08:32:32;16.55;;;11.95;;
49946;SDS011;35839;48.662;13.300;2023-07-09T08:34:57;12.30;;;7.72;;
49946;SDS011;35839;48.662;13.300;2023-07-09T08:37:23;11.75;;;7.78;;
49946;SDS011;35839;48.662;13.300;2023-07-09T08:39:48;11.23;;;7.75;;
49946;SDS011;35839;48.662;13.300;2023-07-09T08:42:16;12.27;;;7.80;;
49946;SDS011;35839;48.662;13.300;2023-07-09T08:50:17;10.05;;;7.80;;
49946;SDS011;35839;48.662;13.300;2023-07-09T08:52:47;12.18;;;6.80;;
49946;SDS011;35839;48.662;13.300;2023-07-09T08:55:15;11.32;;;7.75;;
49946;SDS011;35839;48.662;13.300;2023-07-09T08:57:44;11.75;;;7.47;;
49946;SDS011;35839;48.662;13.300;2023-07-09T09:02:49;12.45;;;7.65;;
49946;SDS011;35839;48.662;13.300;2023-07-09T09:05:18;12.43;;;7.47;;
49946;SDS011;35839;48.662;13.300;2023-07-09T09:07:45;16.42;;;7.80;;
49946;SDS011;35839;48.662;13.300;2023-07-09T09:10:21;13.73;;;9.45;;
49946;SDS011;35839;48.662;13.300;2023-07-09T09:13:05;9.32;;;8.25;;
49946;SDS011;35839;48.662;13.300;2023-07-09T09:15:36;13.48;;;9.15;;
49946;SDS011;35839;48.662;13.300;2023-07-09T09:18:21;11.82;;;7.63;;
49946;SDS011;35839;48.662;13.300;2023-07-09T09:23:43;22.10;;;7.85;;
49946;SDS011;35839;48.662;13.300;2023-07-09T09:26:15;8.25;;;6.60;;
49946;SDS011;35839;48.662;13.300;2023-07-09T09:28:46;8.43;;;7.15;;
49946;SDS011;35839;48.662;13.300;2023-07-09T09:31:12;11.70;;;8.07;;
49946;SDS011;35839;48.662;13.300;2023-07-09T09:33:43;11.00;;;7.95;;
49946;SDS011;35839;48.662;13.300;2023-07-09T09:36:14;15.20;;;7.63;;
49946;SDS011;35839;48.662;13.300;2023-07-09T09:38:45;11.05;;;7.68;;
49946;SDS011;35839;48.662;13.300;2023-07-09T09:41:18;14.82;;;7.80;;
49946;SDS011;35839;48.662;13.300;2023-07-09T09:43:46;9.32;;;7.28;;
49946;SDS011;35839;48.662;13.300;2023-07-09T09:46:22;8.70;;;7.15;;
49946;SDS011;35839;48.662;13.300;2023-07-09T09:48:50;10.05;;;6.75;;
49946;SDS011;35839;48.662;13.300;2023-07-09T09:51:19;12.52;;;6.15;;
49946;SDS011;35839;48.662;13.300;2023-07-09T09:53:46;10.35;;;7.47;;
49946;SDS011;35839;48.662;13.300;2023-07-09T09:56:17;8.95;;;6.82;;
49946;SDS011;35839;48.662;13.300;2023-07-09T09:58:44;12.60;;;10.90;;
49946;SDS011;35839;48.662;13.300;2023-07-09T10:01:16;8.75;;;6.85;;
49946;SDS011;35839;48.662;13.300;2023-07-09T10:03:43;10.82;;;6.68;;
49946;SDS011;35839;48.662;13.300;2023-07-09T10:06:17;8.65;;;5.75;;
49946;SDS011;35839;48.662;13.300;2023-07-09T10:12:02;8.35;;;6.00;;
49946;SDS011;35839;48.662;13.300;2023-07-09T10:17:19;6.45;;;5.85;;
49946;SDS011;35839;48.662;13.300;2023-07-09T10:19:49;7.13;;;6.28;;
49946;SDS011;35839;48.662;13.300;2023-07-09T10:22:40;11.73;;;5.63;;
49946;SDS011;35839;48.662;13.300;2023-07-09T10:25:20;7.65;;;6.20;;
49946;SDS011;35839;48.662;13.300;2023-07-09T10:27:55;6.40;;;5.57;;
49946;SDS011;35839;48.662;13.300;2023-07-09T10:33:33;6.78;;;5.47;;
49946;SDS011;35839;48.662;13.300;2023-07-09T10:36:15;6.07;;;5.30;;
49946;SDS011;35839;48.662;13.300;2023-07-09T10:41:40;6.82;;;5.82;;
49946;SDS011;35839;48.662;13.300;2023-07-09T10:46:42;7.13;;;5.47;;
49946;SDS011;35839;48.662;13.300;2023-07-09T10:49:12;8.40;;;5.30;;
49946;SDS011;35839;48.662;13.300;2023-07-09T10:55:05;6.22;;;5.43;;
49946;SDS011;35839;48.662;13.300;2023-07-09T11:00:18;6.90;;;5.22;;
49946;SDS011;35839;48.662;13.300;2023-07-09T11:02:46;8.43;;;5.13;;
49946;SDS011;35839;48.662;13.300;2023-07-09T11:05:15;6.30;;;4.95;;
49946;SDS011;35839;48.662;13.300;2023-07-09T11:10:27;8.00;;;5.43;;
49946;SDS011;35839;48.662;13.300;2023-07-09T11:13:02;8.40;;;4.38;;
49946;SDS011;35839;48.662;13.300;2023-07-09T11:15:31;7.70;;;4.88;;
49946;SDS011;35839;48.662;13.300;2023-07-09T11:18:00;5.70;;;5.00;;
49946;SDS011;35839;48.662;13.300;2023-07-09T11:20:34;9.23;;;5.57;;
49946;SDS011;35839;48.662;13.300;2023-07-09T11:23:05;6.97;;;5.10;;
49946;SDS011;35839;48.662;13.300;2023-07-09T11:25:45;5.93;;;5.32;;
49946;SDS011;35839;48.662;13.300;2023-07-09T11:28:12;6.55;;;5.35;;
49946;SDS011;35839;48.662;13.300;2023-07-09T11:30:46;9.80;;;5.57;;
49946;SDS011;35839;48.662;13.300;2023-07-09T11:33:20;6.32;;;4.85;;
49946;SDS011;35839;48.662;13.300;2023-07-09T11:35:52;6.15;;;4.57;;
49946;SDS011;35839;48.662;13.300;2023-07-09T11:38:36;6.38;;;4.60;;
49946;SDS011;35839;48.662;13.300;2023-07-09T11:41:23;9.40;;;4.65;;
49946;SDS011;35839;48.662;13.300;2023-07-09T11:43:52;6.00;;;4.97;;
49946;SDS011;35839;48.662;13.300;2023-07-09T11:46:18;5.93;;;4.72;;
49946;SDS011;35839;48.662;13.300;2023-07-09T11:48:49;6.75;;;5.45;;
49946;SDS011;35839;48.662;13.300;2023-07-09T11:51:16;5.60;;;4.68;;
49946;SDS011;35839;48.662;13.300;2023-07-09T11:53:55;6.93;;;5.68;;
49946;SDS011;35839;48.662;13.300;2023-07-09T11:56:21;7.40;;;5.22;;
49946;SDS011;35839;48.662;13.300;2023-07-09T11:58:58;6.50;;;4.70;;
49946;SDS011;35839;48.662;13.300;2023-07-09T12:01:28;8.63;;;5.13;;
49946;SDS011;35839;48.662;13.300;2023-07-09T12:03:59;5.50;;;4.72;;
49946;SDS011;35839;48.662;13.300;2023-07-09T12:06:26;6.28;;;5.10;;
49946;SDS011;35839;48.662;13.300;2023-07-09T12:08:55;7.40;;;4.55;;
49946;SDS011;35839;48.662;13.300;2023-07-09T12:11:34;8.00;;;5.38;;
49946;SDS011;35839;48.662;13.300;2023-07-09T12:16:30;12.80;;;5.78;;
49946;SDS011;35839;48.662;13.300;2023-07-09T12:18:58;5.75;;;4.78;;
49946;SDS011;35839;48.662;13.300;2023-07-09T12:21:23;6.13;;;4.75;;
49946;SDS011;35839;48.662;13.300;2023-07-09T12:23:50;7.35;;;5.00;;
49946;SDS011;35839;48.662;13.300;2023-07-09T12:26:17;5.55;;;4.88;;
49946;SDS011;35839;48.662;13.300;2023-07-09T12:28:55;5.90;;;5.22;;
49946;SDS011;35839;48.662;13.300;2023-07-09T12:31:26;6.10;;;5.03;;
49946;SDS011;35839;48.662;13.300;2023-07-09T12:33:54;8.80;;;4.68;;
49946;SDS011;35839;48.662;13.300;2023-07-09T12:36:20;7.07;;;4.90;;
49946;SDS011;35839;48.662;13.300;2023-07-09T12:38:49;5.50;;;4.55;;
49946;SDS011;35839;48.662;13.300;2023-07-09T12:43:54;5.85;;;4.50;;
49946;SDS011;35839;48.662;13.300;2023-07-09T12:46:23;6.18;;;4.03;;
49946;SDS011;35839;48.662;13.300;2023-07-09T12:48:49;5.03;;;3.92;;
49946;SDS011;35839;48.662;13.300;2023-07-09T12:51:21;8.75;;;3.95;;
49946;SDS011;35839;48.662;13.300;2023-07-09T12:56:40;4.82;;;3.95;;
49946;SDS011;35839;48.662;13.300;2023-07-09T12:59:13;10.75;;;4.00;;
49946;SDS011;35839;48.662;13.300;2023-07-09T13:01:46;8.07;;;4.35;;
49946;SDS011;35839;48.662;13.300;2023-07-09T13:04:13;6.05;;;4.15;;
49946;SDS011;35839;48.662;13.300;2023-07-09T13:06:38;5.45;;;4.30;;
49946;SDS011;35839;48.662;13.300;2023-07-09T13:09:09;6.03;;;4.40;;
49946;SDS011;35839;48.662;13.300;2023-07-09T13:11:40;5.22;;;4.40;;
49946;SDS011;35839;48.662;13.300;2023-07-09T13:14:19;5.30;;;4.20;;
49946;SDS011;35839;48.662;13.300;2023-07-09T13:16:46;5.25;;;4.28;;
49946;SDS011;35839;48.662;13.300;2023-07-09T13:19:12;6.88;;;4.90;;
49946;SDS011;35839;48.662;13.300;2023-07-09T13:21:38;8.25;;;4.10;;
49946;SDS011;35839;48.662;13.300;2023-07-09T13:24:08;9.02;;;4.85;;
49946;SDS011;35839;48.662;13.300;2023-07-09T13:26:38;5.35;;;4.60;;
49946;SDS011;35839;48.662;13.300;2023-07-09T13:29:09;5.47;;;4.38;;
49946;SDS011;35839;48.662;13.300;2023-07-09T13:31:39;6.05;;;4.65;;
49946;SDS011;35839;48.662;13.300;2023-07-09T13:34:07;5.53;;;4.60;;
49946;SDS011;35839;48.662;13.300;2023-07-09T13:39:08;5.60;;;4.53;;
49946;SDS011;35839;48.662;13.300;2023-07-09T13:41:35;6.00;;;4.72;;
49946;SDS011;35839;48.662;13.300;2023-07-09T13:44:01;5.70;;;4.63;;
49946;SDS011;35839;48.662;13.300;2023-07-09T13:46:26;4.78;;;4.32;;
49946;SDS011;35839;48.662;13.300;2023-07-09T13:48:51;6.32;;;4.80;;
49946;SDS011;35839;48.662;13.300;2023-07-09T13:51:18;8.48;;;4.65;;
49946;SDS011;35839;48.662;13.300;2023-07-09T13:53:54;5.70;;;4.70;;
49946;SDS011;35839;48.662;13.300;2023-07-09T13:56:22;4.38;;;3.90;;
49946;SDS011;35839;48.662;13.300;2023-07-09T13:58:49;5.38;;;4.80;;
49946;SDS011;35839;48.662;13.300;2023-07-09T14:01:18;5.37;;;4.23;;
49946;SDS011;35839;48.662;13.300;2023-07-09T14:03:47;9.57;;;4.18;;
49946;SDS011;35839;48.662;13.300;2023-07-09T14:06:13;5.38;;;4.25;;
49946;SDS011;35839;48.662;13.300;2023-07-09T14:08:40;8.50;;;3.95;;
49946;SDS011;35839;48.662;13.300;2023-07-09T14:11:12;7.30;;;4.80;;
49946;SDS011;35839;48.662;13.300;2023-07-09T14:13:41;10.15;;;4.90;;
49946;SDS011;35839;48.662;13.300;2023-07-09T14:16:09;9.82;;;5.20;;
49946;SDS011;35839;48.662;13.300;2023-07-09T14:18:36;8.93;;;4.93;;
49946;SDS011;35839;48.662;13.300;2023-07-09T14:21:24;5.90;;;5.00;;
49946;SDS011;35839;48.662;13.300;2023-07-09T14:23:53;6.15;;;5.05;;
49946;SDS011;35839;48.662;13.300;2023-07-09T14:26:19;10.35;;;4.60;;
49946;SDS011;35839;48.662;13.300;2023-07-09T14:28:44;6.15;;;3.80;;
49946;SDS011;35839;48.662;13.300;2023-07-09T14:31:17;5.47;;;4.68;;
49946;SDS011;35839;48.662;13.300;2023-07-09T14:33:46;5.25;;;4.07;;
49946;SDS011;35839;48.662;13.300;2023-07-09T14:36:12;10.82;;;4.82;;
49946;SDS011;35839;48.662;13.300;2023-07-09T14:38:37;5.30;;;4.80;;
49946;SDS011;35839;48.662;13.300;2023-07-09T14:41:04;7.40;;;5.18;;
49946;SDS011;35839;48.662;13.300;2023-07-09T14:43:43;5.00;;;4.50;;
49946;SDS011;35839;48.662;13.300;2023-07-09T14:46:08;5.53;;;4.60;;
49946;SDS011;35839;48.662;13.300;2023-07-09T14:48:34;7.90;;;5.40;;
49946;SDS011;35839;48.662;13.300;2023-07-09T14:50:59;9.40;;;4.97;;
49946;SDS011;35839;48.662;13.300;2023-07-09T14:53:25;5.30;;;4.78;;
49946;SDS011;35839;48.662;13.300;2023-07-09T14:55:52;7.72;;;4.57;;
49946;SDS011;35839;48.662;13.300;2023-07-09T14:58:19;6.65;;;5.25;;
49946;SDS011;35839;48.662;13.300;2023-07-09T15:00:46;7.60;;;4.85;;
49946;SDS011;35839;48.662;13.300;2023-07-09T15:03:24;8.25;;;4.80;;
49946;SDS011;35839;48.662;13.300;2023-07-09T15:05:51;5.82;;;4.40;;
49946;SDS011;35839;48.662;13.300;2023-07-09T15:08:18;8.73;;;4.70;;
49946;SDS011;35839;48.662;13.300;2023-07-09T15:10:47;7.63;;;4.43;;
49946;SDS011;35839;48.662;13.300;2023-07-09T15:13:17;5.88;;;4.40;;
49946;SDS011;35839;48.662;13.300;2023-07-09T15:15:48;10.10;;;5.20;;
49946;SDS011;35839;48.662;13.300;2023-07-09T15:18:14;6.70;;;5.03;;
49946;SDS011;35839;48.662;13.300;2023-07-09T15:20:43;6.10;;;5.47;;
49946;SDS011;35839;48.662;13.300;2023-07-09T15:23:13;5.40;;;4.35;;
49946;SDS011;35839;48.662;13.300;2023-07-09T15:25:38;6.72;;;4.97;;
49946;SDS011;35839;48.662;13.300;2023-07-09T15:28:03;6.63;;;4.65;;
49946;SDS011;35839;48.662;13.300;2023-07-09T15:30:29;5.88;;;4.65;;
49946;SDS011;35839;48.662;13.300;2023-07-09T15:32:56;4.95;;;4.45;;
49946;SDS011;35839;48.662;13.300;2023-07-09T15:35:31;5.90;;;5.15;;
49946;SDS011;35839;48.662;13.300;2023-07-09T15:37:58;7.25;;;4.97;;
49946;SDS011;35839;48.662;13.300;2023-07-09T15:40:24;5.03;;;4.53;;
49946;SDS011;35839;48.662;13.300;2023-07-09T15:42:54;5.75;;;4.68;;
49946;SDS011;35839;48.662;13.300;2023-07-09T15:45:22;7.00;;;5.00;;
49946;SDS011;35839;48.662;13.300;2023-07-09T15:47:49;7.53;;;4.20;;
49946;SDS011;35839;48.662;13.300;2023-07-09T15:50:16;9.80;;;4.78;;
49946;SDS011;35839;48.662;13.300;2023-07-09T15:52:44;5.05;;;4.50;;
49946;SDS011;35839;48.662;13.300;2023-07-09T15:55:15;5.45;;;4.65;;
49946;SDS011;35839;48.662;13.300;2023-07-09T15:57:51;9.07;;;4.93;;
49946;SDS011;35839;48.662;13.300;2023-07-09T16:00:19;5.18;;;4.68;;
49946;SDS011;35839;48.662;13.300;2023-07-09T16:02:48;8.20;;;4.95;;
49946;SDS011;35839;48.662;13.300;2023-07-09T16:05:19;5.80;;;5.28;;
49946;SDS011;35839;48.662;13.300;2023-07-09T16:07:49;6.88;;;5.10;;
49946;SDS011;35839;48.662;13.300;2023-07-09T16:10:14;10.10;;;6.95;;
49946;SDS011;35839;48.662;13.300;2023-07-09T16:12:40;7.15;;;5.45;;
49946;SDS011;35839;48.662;13.300;2023-07-09T16:15:09;7.18;;;4.93;;
49946;SDS011;35839;48.662;13.300;2023-07-09T16:17:37;8.25;;;5.07;;
49946;SDS011;35839;48.662;13.300;2023-07-09T16:20:02;10.13;;;5.68;;
49946;SDS011;35839;48.662;13.300;2023-07-09T16:22:30;15.77;;;5.00;;
49946;SDS011;35839;48.662;13.300;2023-07-09T16:24:56;8.00;;;5.25;;
49946;SDS011;35839;48.662;13.300;2023-07-09T16:27:21;5.28;;;4.78;;
49946;SDS011;35839;48.662;13.300;2023-07-09T16:29:49;15.75;;;6.32;;
49946;SDS011;35839;48.662;13.300;2023-07-09T16:32:14;22.15;;;6.40;;
49946;SDS011;35839;48.662;13.300;2023-07-09T16:34:40;6.65;;;5.03;;
49946;SDS011;35839;48.662;13.300;2023-07-09T16:37:06;19.67;;;6.67;;
49946;SDS011;35839;48.662;13.300;2023-07-09T16:39:42;9.30;;;5.35;;
49946;SDS011;35839;48.662;13.300;2023-07-09T16:42:09;16.23;;;5.73;;
49946;SDS011;35839;48.662;13.300;2023-07-09T16:44:36;15.50;;;5.60;;
49946;SDS011;35839;48.662;13.300;2023-07-09T16:47:01;6.88;;;4.60;;
49946;SDS011;35839;48.662;13.300;2023-07-09T16:49:39;12.27;;;4.85;;
49946;SDS011;35839;48.662;13.300;2023-07-09T16:54:39;38.20;;;6.00;;
49946;SDS011;35839;48.662;13.300;2023-07-09T16:57:04;6.25;;;5.13;;
49946;SDS011;35839;48.662;13.300;2023-07-09T16:59:37;5.32;;;4.70;;
49946;SDS011;35839;48.662;13.300;2023-07-09T17:02:07;8.43;;;5.00;;
49946;SDS011;35839;48.662;13.300;2023-07-09T17:04:59;8.25;;;4.68;;
49946;SDS011;35839;48.662;13.300;2023-07-09T17:07:26;6.63;;;5.68;;
49946;SDS011;35839;48.662;13.300;2023-07-09T17:09:52;5.10;;;4.00;;
49946;SDS011;35839;48.662;13.300;2023-07-09T17:12:18;5.32;;;4.30;;
49946;SDS011;35839;48.662;13.300;2023-07-09T17:14:44;5.20;;;4.70;;
49946;SDS011;35839;48.662;13.300;2023-07-09T17:17:11;5.45;;;4.50;;
49946;SDS011;35839;48.662;13.300;2023-07-09T17:19:41;8.05;;;4.32;;
49946;SDS011;35839;48.662;13.300;2023-07-09T17:22:12;7.72;;;5.20;;
49946;SDS011;35839;48.662;13.300;2023-07-09T17:24:43;5.25;;;4.75;;
49946;SDS011;35839;48.662;13.300;2023-07-09T17:27:09;6.07;;;4.93;;
49946;SDS011;35839;48.662;13.300;2023-07-09T17:29:35;6.10;;;4.93;;
49946;SDS011;35839;48.662;13.300;2023-07-09T17:32:01;5.75;;;4.72;;
49946;SDS011;35839;48.662;13.300;2023-07-09T17:34:26;5.45;;;4.50;;
49946;SDS011;35839;48.662;13.300;2023-07-09T17:36:51;7.47;;;4.93;;
49946;SDS011;35839;48.662;13.300;2023-07-09T17:39:18;9.60;;;4.72;;
49946;SDS011;35839;48.662;13.300;2023-07-09T17:41:45;8.02;;;5.05;;
49946;SDS011;35839;48.662;13.300;2023-07-09T17:44:13;6.95;;;4.80;;
49946;SDS011;35839;48.662;13.300;2023-07-09T17:46:48;7.47;;;5.20;;
49946;SDS011;35839;48.662;13.300;2023-07-09T17:49:18;10.40;;;4.93;;
49946;SDS011;35839;48.662;13.300;2023-07-09T17:51:45;7.97;;;4.53;;
49946;SDS011;35839;48.662;13.300;2023-07-09T17:54:14;11.45;;;5.18;;
49946;SDS011;35839;48.662;13.300;2023-07-09T17:56:44;16.67;;;4.75;;
49946;SDS011;35839;48.662;13.300;2023-07-09T18:01:42;8.23;;;4.47;;
49946;SDS011;35839;48.662;13.300;2023-07-09T18:04:15;9.13;;;5.00;;
49946;SDS011;35839;48.662;13.300;2023-07-09T18:06:44;7.82;;;4.30;;
49946;SDS011;35839;48.662;13.300;2023-07-09T18:09:14;5.93;;;4.47;;
49946;SDS011;35839;48.662;13.300;2023-07-09T18:11:40;6.93;;;4.07;;
49946;SDS011;35839;48.662;13.300;2023-07-09T18:14:23;5.68;;;3.67;;
49946;SDS011;35839;48.662;13.300;2023-07-09T18:16:54;8.98;;;4.85;;
49946;SDS011;35839;48.662;13.300;2023-07-09T18:19:24;14.55;;;4.57;;
49946;SDS011;35839;48.662;13.300;2023-07-09T18:22:01;18.95;;;5.03;;
49946;SDS011;35839;48.662;13.300;2023-07-09T18:24:37;12.70;;;4.72;;
49946;SDS011;35839;48.662;13.300;2023-07-09T18:27:02;5.35;;;4.05;;
49946;SDS011;35839;48.662;13.300;2023-07-09T18:29:29;11.73;;;4.45;;
49946;SDS011;35839;48.662;13.300;2023-07-09T18:31:57;11.80;;;4.18;;
49946;SDS011;35839;48.662;13.300;2023-07-09T18:34:27;5.80;;;4.28;;
49946;SDS011;35839;48.662;13.300;2023-07-09T18:36:57;5.35;;;4.20;;
49946;SDS011;35839;48.662;13.300;2023-07-09T18:39:23;13.52;;;4.60;;
49946;SDS011;35839;48.662;13.300;2023-07-09T18:41:48;7.03;;;4.30;;
49946;SDS011;35839;48.662;13.300;2023-07-09T18:44:17;6.13;;;4.13;;
49946;SDS011;35839;48.662;13.300;2023-07-09T18:46:45;5.68;;;4.05;;
49946;SDS011;35839;48.662;13.300;2023-07-09T18:49:11;6.72;;;4.15;;
49946;SDS011;35839;48.662;13.300;2023-07-09T18:51:37;6.45;;;4.32;;
49946;SDS011;35839;48.662;13.300;2023-07-09T18:54:08;6.20;;;3.78;;
49946;SDS011;35839;48.662;13.300;2023-07-09T18:56:44;6.40;;;4.50;;
49946;SDS011;35839;48.662;13.300;2023-07-09T18:59:20;5.55;;;3.90;;
49946;SDS011;35839;48.662;13.300;2023-07-09T19:01:47;7.55;;;4.43;;
49946;SDS011;35839;48.662;13.300;2023-07-09T19:04:24;9.88;;;4.78;;
49946;SDS011;35839;48.662;13.300;2023-07-09T19:06:52;10.38;;;3.80;;
49946;SDS011;35839;48.662;13.300;2023-07-09T19:09:20;6.50;;;3.78;;
49946;SDS011;35839;48.662;13.300;2023-07-09T19:11:47;7.82;;;4.45;;
49946;SDS011;35839;48.662;13.300;2023-07-09T19:14:16;11.80;;;4.55;;
49946;SDS011;35839;48.662;13.300;2023-07-09T19:16:43;5.53;;;4.57;;
49946;SDS011;35839;48.662;13.300;2023-07-09T19:19:14;7.13;;;4.18;;
49946;SDS011;35839;48.662;13.300;2023-07-09T19:21:44;9.07;;;4.60;;
49946;SDS011;35839;48.662;13.300;2023-07-09T19:24:22;7.30;;;5.05;;
49946;SDS011;35839;48.662;13.300;2023-07-09T19:26:49;15.88;;;4.78;;
49946;SDS011;35839;48.662;13.300;2023-07-09T19:29:16;8.07;;;4.55;;
49946;SDS011;35839;48.662;13.300;2023-07-09T19:31:42;5.97;;;4.45;;
49946;SDS011;35839;48.662;13.300;2023-07-09T19:34:32;6.93;;;4.47;;
49946;SDS011;35839;48.662;13.300;2023-07-09T19:36:59;8.10;;;4.95;;
49946;SDS011;35839;48.662;13.300;2023-07-09T19:39:27;6.90;;;4.60;;
49946;SDS011;35839;48.662;13.300;2023-07-09T19:41:57;13.00;;;5.30;;
49946;SDS011;35839;48.662;13.300;2023-07-09T19:44:31;6.53;;;4.28;;
49946;SDS011;35839;48.662;13.300;2023-07-09T19:46:57;10.15;;;4.30;;
49946;SDS011;35839;48.662;13.300;2023-07-09T19:49:25;5.53;;;4.07;;
49946;SDS011;35839;48.662;13.300;2023-07-09T19:51:50;4.75;;;3.63;;
49946;SDS011;35839;48.662;13.300;2023-07-09T19:54:16;12.18;;;4.80;;
49946;SDS011;35839;48.662;13.300;2023-07-09T19:56:43;9.30;;;4.45;;
49946;SDS011;35839;48.662;13.300;2023-07-09T19:59:10;6.75;;;3.75;;
49946;SDS011;35839;48.662;13.300;2023-07-09T20:01:36;6.80;;;3.83;;
49946;SDS011;35839;48.662;13.300;2023-07-09T20:04:01;6.63;;;4.25;;
49946;SDS011;35839;48.662;13.300;2023-07-09T20:06:27;5.47;;;3.40;;
49946;SDS011;35839;48.662;13.300;2023-07-09T20:08:54;7.10;;;3.83;;
49946;SDS011;35839;48.662;13.300;2023-07-09T20:11:19;9.02;;;4.43;;
49946;SDS011;35839;48.662;13.300;2023-07-09T20:13:45;6.68;;;4.40;;
49946;SDS011;35839;48.662;13.300;2023-07-09T20:18:49;7.90;;;4.55;;
49946;SDS011;35839;48.662;13.300;2023-07-09T20:21:17;7.03;;;4.47;;
49946;SDS011;35839;48.662;13.300;2023-07-09T20:23:45;9.38;;;5.05;;
49946;SDS011;35839;48.662;13.300;2023-07-09T20:26:11;7.30;;;4.50;;
49946;SDS011;35839;48.662;13.300;2023-07-09T20:28:36;6.40;;;3.97;;
49946;SDS011;35839;48.662;13.300;2023-07-09T20:31:02;5.10;;;3.80;;
49946;SDS011;35839;48.662;13.300;2023-07-09T20:33:35;6.13;;;4.18;;